createdAt,value
2023-02-14T00:01:40.040Z,100.00
2023-02-14T00:04:45.056Z,100.00
2023-02-14T00:07:48.202Z,100.00
2023-02-14T00:10:51.640Z,100.00
2023-02-14T00:14:14.462Z,100.00
2023-02-14T00:17:18.272Z,100.00
2023-02-14T00:20:23.169Z,100.00
2023-02-14T00:23:26.859Z,100.00
2023-02-14T00:26:30.183Z,100.00
2023-02-14T00:29:33.826Z,100.00
2023-02-14T00:32:39.593Z,100.00
2023-02-14T00:35:43.261Z,100.00
2023-02-14T00:38:46.456Z,100.00
2023-02-14T00:41:50.094Z,100.00
2023-02-14T00:44:53.230Z,100.00
2023-02-14T00:47:57.711Z,100.00
2023-02-14T00:51:01.271Z,100.00
2023-02-14T00:54:05.980Z,100.00
2023-02-14T00:57:10.441Z,100.00
2023-02-14T01:00:14.736Z,100.00
2023-02-14T01:03:18.015Z,100.00
2023-02-14T01:06:21.694Z,100.00
2023-02-14T01:09:25.926Z,100.00
2023-02-14T01:12:29.486Z,100.00
2023-02-14T01:15:33.873Z,100.00
2023-02-14T01:18:37.794Z,100.00
2023-02-14T01:21:41.948Z,100.00
2023-02-14T01:24:45.431Z,100.00
2023-02-14T01:27:48.585Z,100.00
2023-02-14T01:30:52.147Z,100.00
2023-02-14T01:33:56.174Z,100.00
2023-02-14T01:36:59.736Z,100.00
2023-02-14T01:40:05.209Z,100.00
2023-02-14T01:43:15.457Z,100.00
2023-02-14T01:46:18.676Z,100.00
2023-02-14T01:49:27.744Z,100.00
2023-02-14T01:52:40.699Z,100.00
2023-02-14T01:55:48.856Z,100.00
2023-02-14T01:58:58.662Z,100.00
2023-02-14T02:02:03.024Z,100.00
2023-02-14T02:05:06.674Z,100.00
2023-02-14T02:08:10.319Z,100.00
2023-02-14T02:11:13.912Z,100.00
2023-02-14T02:14:19.862Z,100.00
2023-02-14T02:17:38.477Z,100.00
2023-02-14T02:21:15.263Z,100.00
2023-02-14T02:24:32.790Z,100.00
2023-02-14T02:28:06.234Z,100.00
2023-02-14T02:31:21.776Z,100.00
2023-02-14T02:34:56.164Z,100.00
2023-02-14T02:38:38.940Z,100.00
2023-02-14T02:42:20.263Z,100.00
2023-02-14T02:46:04.391Z,100.00
2023-02-14T02:49:45.944Z,100.00
2023-02-14T02:53:08.712Z,100.00
2023-02-14T02:56:57.977Z,100.00
2023-02-14T03:00:04.328Z,100.00
2023-02-14T03:03:26.692Z,100.00
2023-02-14T03:06:31.802Z,100.00
2023-02-14T03:09:41.663Z,100.00
2023-02-14T03:13:30.040Z,100.00
2023-02-14T03:16:36.320Z,100.00
2023-02-14T03:20:16.160Z,100.00
2023-02-14T03:23:24.906Z,100.00
2023-02-14T03:26:38.519Z,100.00
2023-02-14T03:29:48.081Z,100.00
2023-02-14T03:33:07.455Z,100.00
2023-02-14T03:36:22.084Z,100.00
2023-02-14T03:39:33.120Z,100.00
2023-02-14T03:42:42.815Z,100.00
2023-02-14T03:45:53.907Z,100.00
2023-02-14T03:49:03.976Z,100.00
2023-02-14T03:52:09.822Z,100.00
2023-02-14T03:55:16.964Z,100.00
2023-02-14T03:58:26.423Z,100.00
2023-02-14T04:01:39.589Z,100.00
2023-02-14T04:04:46.623Z,100.00
2023-02-14T04:07:55.784Z,100.00
2023-02-14T04:11:02.073Z,100.00
2023-02-14T04:14:05.681Z,100.00
2023-02-14T04:17:27.523Z,100.00
2023-02-14T04:20:31.200Z,100.00
2023-02-14T04:23:34.802Z,100.00
2023-02-14T04:26:38.401Z,100.00
2023-02-14T04:29:44.886Z,100.00
2023-02-14T04:32:48.137Z,100.00
2023-02-14T04:35:52.795Z,100.00
2023-02-14T04:38:56.220Z,100.00
2023-02-14T04:42:00.240Z,100.00
2023-02-14T04:45:04.472Z,100.00
2023-02-14T04:48:08.280Z,100.00
2023-02-14T04:51:11.547Z,100.00
2023-02-14T04:54:15.048Z,100.00
2023-02-14T04:57:18.366Z,100.00
2023-02-14T05:00:22.436Z,100.00
2023-02-14T05:03:28.503Z,100.00
2023-02-14T05:06:33.053Z,100.00
2023-02-14T05:09:36.308Z,100.00
2023-02-14T05:12:39.564Z,100.00
2023-02-14T05:15:44.346Z,100.00
2023-02-14T05:18:48.178Z,100.00
2023-02-14T05:21:51.503Z,100.00
2023-02-14T05:24:54.913Z,100.00
2023-02-14T05:27:58.608Z,100.00
2023-02-14T05:31:03.749Z,100.00
2023-02-14T05:34:08.435Z,100.00
2023-02-14T05:37:11.904Z,100.00
2023-02-14T05:40:16.498Z,100.00
2023-02-14T05:43:21.433Z,100.00
2023-02-14T05:46:24.761Z,100.00
2023-02-14T05:49:29.117Z,100.00
2023-02-14T05:52:32.908Z,100.00
2023-02-14T05:55:36.511Z,100.00
2023-02-14T05:58:39.752Z,100.00
2023-02-14T06:01:43.230Z,100.00
2023-02-14T06:04:46.639Z,100.00
2023-02-14T06:07:52.873Z,100.00
2023-02-14T06:10:56.431Z,100.00
2023-02-14T06:14:00.290Z,100.00
2023-02-14T06:17:04.951Z,100.00
2023-02-14T06:20:12.144Z,100.00
2023-02-14T06:23:15.610Z,100.00
2023-02-14T06:26:18.936Z,100.00
2023-02-14T06:29:23.051Z,100.00
2023-02-14T06:32:26.362Z,100.00
2023-02-14T06:35:30.547Z,100.00
2023-02-14T06:38:33.793Z,100.00
2023-02-14T06:41:37.898Z,100.00
2023-02-14T06:44:40.986Z,100.00
2023-02-14T06:47:46.416Z,100.00
2023-02-14T06:50:49.742Z,100.00
2023-02-14T06:53:53.172Z,100.00
2023-02-14T06:56:56.334Z,100.00
2023-02-14T06:59:59.848Z,100.00
2023-02-14T07:03:03.234Z,100.00
2023-02-14T07:06:07.079Z,100.00
2023-02-14T07:09:10.228Z,100.00
2023-02-14T07:12:13.687Z,100.00
2023-02-14T07:15:17.186Z,100.00
2023-02-14T07:18:20.995Z,100.00
2023-02-14T07:21:24.173Z,100.00
2023-02-14T07:24:29.004Z,100.00
2023-02-14T07:27:32.695Z,100.00
2023-02-14T07:30:37.420Z,100.00
2023-02-14T07:33:40.767Z,100.00
2023-02-14T07:36:44.357Z,100.00
2023-02-14T07:39:47.560Z,100.00
2023-02-14T07:42:58.972Z,100.00
2023-02-14T07:46:02.567Z,100.00
2023-02-14T07:49:06.024Z,100.00
2023-02-14T07:52:09.377Z,100.00
2023-02-14T07:55:13.092Z,100.00
2023-02-14T07:58:16.431Z,100.00
2023-02-14T08:01:21.128Z,100.00
2023-02-14T08:04:27.698Z,100.00
2023-02-14T08:07:30.912Z,100.00
2023-02-14T08:10:34.491Z,100.00
2023-02-14T08:13:37.983Z,100.00
2023-02-14T08:16:41.419Z,100.00
2023-02-14T08:19:44.702Z,100.00
2023-02-14T08:22:48.183Z,100.00
2023-02-14T08:25:52.171Z,100.00
2023-02-14T08:28:56.874Z,100.00
2023-02-14T08:32:00.769Z,100.00
2023-02-14T08:35:04.325Z,100.00
2023-02-14T08:38:07.768Z,100.00
2023-02-14T08:41:12.316Z,100.00
2023-02-14T08:44:16.612Z,100.00
2023-02-14T08:47:20.056Z,100.00
2023-02-14T08:50:23.458Z,99.33
2023-02-14T08:53:26.923Z,95.99
2023-02-14T08:56:30.181Z,93.74
2023-02-14T08:59:34.406Z,90.36
2023-02-14T09:02:38.201Z,83.11
2023-02-14T09:05:41.799Z,82.99
2023-02-14T09:08:45.686Z,78.47
2023-02-14T09:11:49.754Z,80.88
2023-02-14T09:14:53.290Z,82.04
2023-02-14T09:17:56.838Z,77.17
2023-02-14T09:21:01.599Z,78.05
2023-02-14T09:24:06.729Z,76.43
2023-02-14T09:27:10.595Z,77.04
2023-02-14T09:30:15.283Z,76.34
2023-02-14T09:33:19.658Z,75.09
2023-02-14T09:36:23.536Z,77.93
2023-02-14T09:39:26.809Z,76.64
2023-02-14T09:42:37.979Z,73.49
2023-02-14T09:45:47.207Z,74.79
2023-02-14T09:48:54.770Z,73.78
2023-02-14T09:51:59.172Z,75.45
2023-02-14T09:55:04.143Z,70.51
2023-02-14T09:58:23.077Z,68.90
2023-02-14T10:01:35.206Z,67.29
2023-02-14T10:04:55.346Z,68.35
2023-02-14T10:08:27.521Z,66.15
2023-02-14T10:11:32.984Z,64.73
2023-02-14T10:14:41.115Z,63.19
2023-02-14T10:18:00.109Z,63.28
2023-02-14T10:21:04.515Z,63.16
2023-02-14T10:24:28.784Z,62.06
2023-02-14T10:27:44.002Z,61.35
2023-02-14T10:31:16.419Z,61.72
2023-02-14T10:34:34.151Z,62.52
2023-02-14T10:38:10.446Z,61.36
2023-02-14T10:41:50.401Z,61.82
2023-02-14T10:44:59.930Z,62.90
2023-02-14T10:48:16.693Z,61.97
2023-02-14T10:51:33.484Z,61.13
2023-02-14T10:54:40.146Z,61.36
2023-02-14T10:57:51.345Z,61.36
2023-02-14T11:01:12.991Z,62.22
2023-02-14T11:04:21.302Z,61.82
2023-02-14T11:07:24.592Z,60.32
2023-02-14T11:10:33.085Z,58.43
2023-02-14T11:13:38.408Z,60.21
2023-02-14T11:16:42.285Z,57.94
2023-02-14T11:19:58.096Z,57.88
2023-02-14T11:23:01.547Z,57.44
2023-02-14T11:26:11.969Z,55.39
2023-02-14T11:29:26.521Z,55.64
2023-02-14T11:32:34.543Z,56.80
2023-02-14T11:35:39.003Z,55.71
2023-02-14T11:38:45.407Z,54.83
2023-02-14T11:41:56.404Z,54.68
2023-02-14T11:44:59.789Z,54.59
2023-02-14T11:48:24.980Z,55.40
2023-02-14T11:51:42.032Z,53.92
2023-02-14T11:54:49.600Z,54.04
2023-02-14T11:57:55.356Z,55.11
2023-02-14T12:01:02.230Z,54.27
2023-02-14T12:04:15.477Z,55.69
2023-02-14T12:07:38.333Z,54.47
2023-02-14T12:10:44.740Z,55.06
2023-02-14T12:13:55.689Z,51.87
2023-02-14T12:17:13.693Z,50.69
2023-02-14T12:20:42.103Z,52.01
2023-02-14T12:24:20.621Z,54.09
2023-02-14T12:27:30.283Z,53.00
2023-02-14T12:30:35.503Z,51.22
2023-02-14T12:33:39.934Z,53.15
2023-02-14T12:37:13.961Z,51.37
2023-02-14T12:40:41.605Z,51.56
2023-02-14T12:43:52.602Z,51.96
2023-02-14T12:47:23.195Z,50.88
2023-02-14T12:50:26.580Z,51.22
2023-02-14T12:53:44.045Z,50.31
2023-02-14T12:56:50.271Z,52.10
2023-02-14T13:00:18.343Z,51.62
2023-02-14T13:03:44.868Z,52.47
2023-02-14T13:06:55.914Z,52.53
2023-02-14T13:10:15.041Z,52.11
2023-02-14T13:13:37.266Z,51.88
2023-02-14T13:16:51.573Z,52.51
2023-02-14T13:20:22.161Z,52.15
2023-02-14T13:23:25.763Z,52.79
2023-02-14T13:26:40.978Z,52.31
2023-02-14T13:29:49.201Z,52.03
2023-02-14T13:32:54.810Z,53.02
2023-02-14T13:36:02.596Z,52.64
2023-02-14T13:39:07.175Z,52.72
2023-02-14T13:42:11.783Z,51.51
2023-02-14T13:45:35.185Z,52.20
2023-02-14T13:48:39.325Z,53.25
2023-02-14T13:51:53.727Z,51.13
2023-02-14T13:55:03.437Z,51.68
2023-02-14T13:58:16.365Z,51.62
2023-02-14T14:01:34.142Z,52.15
2023-02-14T14:04:38.250Z,52.41
2023-02-14T14:07:42.678Z,51.42
2023-02-14T14:11:01.642Z,52.06
2023-02-14T14:14:30.272Z,52.27
2023-02-14T14:17:35.135Z,52.08
2023-02-14T14:20:48.029Z,52.61
2023-02-14T14:24:27.840Z,51.70
2023-02-14T14:27:35.470Z,51.98
2023-02-14T14:30:44.825Z,51.39
2023-02-14T14:33:58.054Z,52.08
2023-02-14T14:37:08.303Z,53.23
2023-02-14T14:40:30.076Z,53.64
2023-02-14T14:43:39.750Z,55.07
2023-02-14T14:46:43.218Z,55.82
2023-02-14T14:49:47.922Z,56.20
2023-02-14T14:53:02.087Z,57.24
2023-02-14T14:56:11.766Z,58.03
2023-02-14T14:59:35.384Z,58.04
2023-02-14T15:02:39.399Z,58.78
2023-02-14T15:05:46.141Z,59.08
2023-02-14T15:08:51.635Z,59.23
2023-02-14T15:12:14.089Z,60.03
2023-02-14T15:15:18.825Z,60.61
2023-02-14T15:18:22.263Z,61.53
2023-02-14T15:21:27.071Z,62.08
2023-02-14T15:24:32.453Z,62.64
2023-02-14T15:27:40.753Z,63.39
2023-02-14T15:30:46.795Z,64.26
2023-02-14T15:33:50.758Z,64.93
2023-02-14T15:36:59.277Z,65.57
2023-02-14T15:40:03.694Z,67.00
2023-02-14T15:43:22.288Z,68.15
2023-02-14T15:46:33.398Z,68.99
2023-02-14T15:49:41.130Z,69.70
2023-02-14T15:52:46.398Z,71.23
2023-02-14T15:55:51.067Z,72.49
2023-02-14T15:59:05.825Z,73.41
2023-02-14T16:02:36.382Z,74.76
2023-02-14T16:05:48.098Z,76.17
2023-02-14T16:08:56.048Z,77.10
2023-02-14T16:12:00.764Z,78.09
2023-02-14T16:15:23.600Z,79.29
2023-02-14T16:18:43.272Z,80.22
2023-02-14T16:21:57.559Z,81.21
2023-02-14T16:25:03.269Z,82.44
2023-02-14T16:28:06.877Z,84.29
2023-02-14T16:31:16.266Z,85.24
2023-02-14T16:34:19.834Z,86.36
2023-02-14T16:37:33.446Z,86.85
2023-02-14T16:40:37.894Z,87.86
2023-02-14T16:43:42.204Z,87.77
2023-02-14T16:46:47.050Z,88.70
2023-02-14T16:49:53.397Z,89.31
2023-02-14T16:52:58.338Z,90.07
2023-02-14T16:56:03.672Z,90.75
2023-02-14T16:59:07.975Z,91.54
2023-02-14T17:02:14.000Z,92.10
2023-02-14T17:05:19.721Z,92.77
2023-02-14T17:08:24.910Z,93.38
2023-02-14T17:11:32.003Z,94.17
2023-02-14T17:14:38.682Z,95.08
2023-02-14T17:17:44.519Z,95.09
2023-02-14T17:20:51.519Z,95.66
2023-02-14T17:23:57.365Z,95.73
2023-02-14T17:27:02.261Z,96.19
2023-02-14T17:30:07.467Z,96.68
2023-02-14T17:33:11.925Z,96.91
2023-02-14T17:36:16.659Z,97.28
2023-02-14T17:39:22.253Z,97.84
2023-02-14T17:42:27.420Z,98.49
2023-02-14T17:45:32.311Z,99.06
2023-02-14T17:48:37.387Z,99.70
2023-02-14T17:51:42.085Z,99.84
2023-02-14T17:54:50.309Z,100.00
2023-02-14T17:57:55.767Z,100.00
2023-02-14T18:01:05.519Z,100.00
2023-02-14T18:04:10.804Z,100.00
2023-02-14T18:07:17.122Z,100.00
2023-02-14T18:10:23.338Z,100.00
2023-02-14T18:13:29.185Z,100.00
2023-02-14T18:16:35.080Z,100.00
2023-02-14T18:19:39.954Z,100.00
2023-02-14T18:22:47.545Z,100.00
2023-02-14T18:25:57.782Z,100.00
2023-02-14T18:29:07.420Z,100.00
2023-02-14T18:32:12.668Z,100.00
2023-02-14T18:35:21.119Z,100.00
2023-02-14T18:38:27.326Z,100.00
2023-02-14T18:41:33.030Z,100.00
2023-02-14T18:44:37.981Z,100.00
2023-02-14T18:47:44.009Z,100.00
2023-02-14T18:50:48.430Z,100.00
2023-02-14T18:53:58.496Z,100.00
2023-02-14T18:57:04.550Z,100.00
2023-02-14T19:00:12.293Z,100.00
2023-02-14T19:03:19.089Z,100.00
2023-02-14T19:06:24.686Z,100.00
2023-02-14T19:09:30.089Z,100.00
2023-02-14T19:12:36.571Z,100.00
2023-02-14T19:15:42.886Z,100.00
2023-02-14T19:18:50.932Z,100.00
2023-02-14T19:22:00.466Z,100.00
2023-02-14T19:25:10.203Z,100.00
2023-02-14T19:28:16.707Z,100.00
2023-02-14T19:31:22.775Z,100.00
2023-02-14T19:34:31.398Z,100.00
2023-02-14T19:37:39.641Z,100.00
2023-02-14T19:40:45.502Z,100.00
2023-02-14T19:43:55.372Z,100.00
2023-02-14T19:47:07.640Z,100.00
2023-02-14T19:50:21.586Z,100.00
2023-02-14T19:53:27.667Z,100.00
2023-02-14T19:56:35.855Z,100.00
2023-02-14T19:59:41.664Z,100.00
2023-02-14T20:02:48.855Z,100.00
2023-02-14T20:05:54.572Z,100.00
2023-02-14T20:09:01.533Z,100.00
2023-02-14T20:12:08.433Z,100.00
2023-02-14T20:15:14.078Z,100.00
2023-02-14T20:18:21.749Z,100.00
2023-02-14T20:21:28.993Z,100.00
2023-02-14T20:24:36.226Z,100.00
2023-02-14T20:27:43.208Z,100.00
2023-02-14T20:30:50.240Z,100.00
2023-02-14T20:33:57.429Z,100.00
2023-02-14T20:37:04.105Z,100.00
2023-02-14T20:40:12.901Z,100.00
2023-02-14T20:43:19.761Z,100.00
2023-02-14T20:46:27.598Z,100.00
2023-02-14T20:49:36.461Z,100.00
2023-02-14T20:52:44.014Z,100.00
2023-02-14T20:55:55.702Z,100.00
2023-02-14T20:59:04.295Z,100.00
2023-02-14T21:02:11.292Z,100.00
2023-02-14T21:05:19.064Z,100.00
2023-02-14T21:08:26.009Z,100.00
2023-02-14T21:11:33.203Z,100.00
2023-02-14T21:14:45.912Z,100.00
2023-02-14T21:17:51.733Z,100.00
2023-02-14T21:21:05.572Z,100.00
2023-02-14T21:24:13.057Z,100.00
2023-02-14T21:27:18.290Z,100.00
2023-02-14T21:30:22.545Z,100.00
2023-02-14T21:33:32.088Z,100.00
2023-02-14T21:36:36.731Z,100.00
2023-02-14T21:39:42.824Z,100.00
2023-02-14T21:42:47.747Z,100.00
2023-02-14T21:45:55.535Z,100.00
2023-02-14T21:49:20.771Z,100.00
2023-02-14T21:52:27.014Z,100.00
2023-02-14T21:55:32.430Z,100.00
2023-02-14T21:58:38.845Z,100.00
2023-02-14T22:01:43.900Z,100.00
2023-02-14T22:04:48.716Z,100.00
2023-02-14T22:07:52.404Z,100.00
2023-02-14T22:10:56.759Z,100.00
2023-02-14T22:14:00.859Z,100.00
2023-02-14T22:17:05.441Z,100.00
2023-02-14T22:20:10.538Z,100.00
2023-02-14T22:23:14.790Z,100.00
2023-02-14T22:26:22.987Z,100.00
2023-02-14T22:29:27.416Z,100.00
2023-02-14T22:32:32.083Z,100.00
2023-02-14T22:35:36.916Z,100.00
2023-02-14T22:38:40.774Z,100.00
2023-02-14T22:41:45.062Z,100.00
2023-02-14T22:44:48.232Z,100.00
2023-02-14T22:47:51.792Z,100.00
2023-02-14T22:50:55.572Z,100.00
2023-02-14T22:54:02.271Z,100.00
2023-02-14T22:57:05.370Z,100.00
2023-02-14T23:00:11.794Z,100.00
2023-02-14T23:03:15.176Z,100.00
2023-02-14T23:06:18.666Z,100.00
2023-02-14T23:09:23.182Z,100.00
2023-02-14T23:12:45.358Z,100.00
2023-02-14T23:16:11.055Z,100.00
2023-02-14T23:19:34.955Z,100.00
2023-02-14T23:22:40.947Z,100.00
2023-02-14T23:25:44.689Z,100.00
2023-02-14T23:28:48.294Z,100.00
2023-02-14T23:31:52.270Z,100.00
2023-02-14T23:34:55.943Z,100.00
2023-02-14T23:38:00.503Z,100.00
2023-02-14T23:41:31.221Z,100.00
2023-02-14T23:44:35.866Z,100.00
2023-02-14T23:47:38.981Z,100.00
2023-02-14T23:50:42.553Z,100.00
2023-02-14T23:53:45.911Z,100.00
2023-02-14T23:56:50.715Z,100.00
2023-02-14T23:59:53.940Z,100.00
